Time;durP1;ratioP1;P1;durP2;ratioP2;P2;SDS_P1;SDS_P2;PMS_P1;PMS_P2;Temp;Humidity;BMP_temperature;BMP_pressure;BME280_temperature;BME280_humidity;BME280_pressure;Samples;Min_cycle;Max_cycle;Signal;HPM_P1;HPM_P2
2023/06/23 00:01:55;;;;;;;;;;;;;;;18.43;100.00;95922.22;5045005;28;19925;-76
2023/06/23 00:04:21;;;;;;;;;;;;;;;18.57;100.00;95932.25;5052419;28;20434;-75
2023/06/23 00:06:47;;;;;;;;;;;;;;;18.59;100.00;95927.72;5049639;28;20340;-75
2023/06/23 00:09:14;;;;;;;;;;;;;;;18.45;100.00;95930.78;5044678;28;19986;-75
2023/06/23 00:11:41;;;;;;;;;;;;;;;18.48;100.00;95935.75;5042693;28;20438;-76
2023/06/23 00:14:07;;;;;;;;;;;;;;;18.60;100.00;95940.69;5043258;28;20354;-76
2023/06/23 00:16:34;;;;;;;;;;;;;;;18.75;100.00;95948.97;5047936;28;19971;-76
2023/06/23 00:19:02;;;;;;;;;;;;;;;18.46;100.00;95948.97;5042360;28;20418;-76
2023/06/23 00:21:28;;;;;;;;;;;;;;;18.35;100.00;95947.38;5049867;28;19932;-76
2023/06/23 00:23:54;;;;;;;;;;;;;;;18.38;100.00;95957.56;5050306;28;19924;-76
2023/06/23 00:26:21;;;;;;;;;;;;;;;18.45;100.00;95964.88;5046273;28;19970;-76
2023/06/23 00:28:47;;;;;;;;;;;;;;;18.37;100.00;95971.63;5048182;28;20284;-76
2023/06/23 00:31:13;;;;;;;;;;;;;;;18.22;100.00;95975.66;5045297;28;19995;-76
2023/06/23 00:33:39;;;;;;;;;;;;;;;18.17;100.00;95980.50;5051911;28;19925;-76
2023/06/23 00:36:07;;;;;;;;;;;;;;;18.14;100.00;95986.81;5044891;28;20142;-75
2023/06/23 00:38:34;;;;;;;;;;;;;;;18.11;100.00;95986.28;5048141;28;19928;-76
2023/06/23 00:41:01;;;;;;;;;;;;;;;17.89;100.00;95982.94;5051121;28;20012;-75
2023/06/23 00:43:30;;;;;;;;;;;;;;;17.83;100.00;95982.63;5050468;28;19937;-75
2023/06/23 00:45:57;;;;;;;;;;;;;;;17.70;100.00;95982.88;5051085;28;19932;-76
2023/06/23 00:48:23;;;;;;;;;;;;;;;17.33;100.00;95985.25;5047366;28;19924;-75
2023/06/23 00:50:49;;;;;;;;;;;;;;;17.24;100.00;95991.28;5051684;28;19929;-75
2023/06/23 00:53:17;;;;;;;;;;;;;;;17.07;100.00;95998.78;5040522;28;20552;-75
2023/06/23 00:55:46;;;;;;;;;;;;;;;16.97;100.00;96000.53;5042036;28;20008;-75
2023/06/23 00:58:12;;;;;;;;;;;;;;;16.92;100.00;96013.16;5045901;28;19936;-76
2023/06/23 01:00:39;;;;;;;;;;;;;;;16.90;100.00;96012.47;5040230;28;19929;-75
2023/06/23 01:03:06;;;;;;;;;;;;;;;16.92;100.00;96023.63;5041651;28;20047;-76
2023/06/23 01:05:34;;;;;;;;;;;;;;;16.72;100.00;96043.56;5045846;28;20382;-75
2023/06/23 01:08:11;;;;;;;;;;;;;;;16.56;100.00;96043.19;5050619;28;19928;-75
2023/06/23 01:10:42;;;;;;;;;;;;;;;16.58;100.00;96042.09;5042053;28;19940;-76
2023/06/23 01:13:14;;;;;;;;;;;;;;;16.55;100.00;96042.34;5048031;28;19928;-76
2023/06/23 01:15:42;;;;;;;;;;;;;;;16.43;100.00;96038.97;5047058;28;19971;-76
2023/06/23 01:18:10;;;;;;;;;;;;;;;16.34;100.00;96044.09;5047611;28;19932;-76
2023/06/23 01:20:39;;;;;;;;;;;;;;;16.33;100.00;96050.28;5042691;28;20311;-75
2023/06/23 01:23:14;;;;;;;;;;;;;;;16.33;100.00;96058.97;5046140;28;19925;-76
2023/06/23 01:25:49;;;;;;;;;;;;;;;16.33;100.00;96068.59;5046313;28;19925;-76
2023/06/23 01:28:30;;;;;;;;;;;;;;;16.35;100.00;96062.28;5049870;28;19932;-75
2023/06/23 01:31:00;;;;;;;;;;;;;;;16.33;100.00;96058.13;5047144;28;20499;-75
2023/06/23 01:33:28;;;;;;;;;;;;;;;16.18;100.00;96062.81;5047507;28;20508;-76
2023/06/23 01:36:00;;;;;;;;;;;;;;;16.10;100.00;96058.22;5049954;28;19975;-76
2023/06/23 01:38:28;;;;;;;;;;;;;;;16.11;100.00;96052.03;5049782;28;19925;-76
2023/06/23 01:40:56;;;;;;;;;;;;;;;16.06;100.00;96051.56;5044519;28;19928;-76
2023/06/23 01:43:29;;;;;;;;;;;;;;;16.01;100.00;96045.03;5037863;28;19947;-76
2023/06/23 01:45:55;;;;;;;;;;;;;;;16.06;100.00;96053.38;5050233;28;19956;-76
2023/06/23 01:48:24;;;;;;;;;;;;;;;16.10;100.00;96050.38;5046093;28;19929;-76
2023/06/23 01:50:54;;;;;;;;;;;;;;;16.03;100.00;96054.44;5047180;28;21282;-76
2023/06/23 01:53:20;;;;;;;;;;;;;;;16.00;100.00;96054.66;5039623;28;19932;-76
2023/06/23 01:55:48;;;;;;;;;;;;;;;16.15;100.00;96050.00;5044234;28;19929;-76
2023/06/23 01:58:15;;;;;;;;;;;;;;;16.08;100.00;96057.50;5048088;28;19932;-76
2023/06/23 02:00:42;;;;;;;;;;;;;;;15.92;100.00;96054.44;5039780;28;19959;-76
2023/06/23 02:03:09;;;;;;;;;;;;;;;15.96;100.00;96064.53;5045792;28;19929;-76
2023/06/23 02:05:37;;;;;;;;;;;;;;;16.00;100.00;96067.72;5049788;28;19928;-76
2023/06/23 02:08:04;;;;;;;;;;;;;;;15.95;100.00;96075.13;5045729;28;20315;-76
2023/06/23 02:10:31;;;;;;;;;;;;;;;15.93;100.00;96071.78;5045637;28;19924;-76
2023/06/23 02:12:58;;;;;;;;;;;;;;;15.92;100.00;96075.34;5051956;28;19931;-76
2023/06/23 02:15:26;;;;;;;;;;;;;;;15.90;100.00;96080.69;5048891;28;20392;-76
2023/06/23 02:17:53;;;;;;;;;;;;;;;15.89;100.00;96071.19;5051342;28;19932;-76
2023/06/23 02:20:23;;;;;;;;;;;;;;;15.88;100.00;96066.09;5048928;28;19925;-76
2023/06/23 02:22:51;;;;;;;;;;;;;;;15.93;100.00;96069.16;5050369;28;19933;-76
2023/06/23 02:25:18;;;;;;;;;;;;;;;15.88;100.00;96079.97;5054207;28;19928;-76
2023/06/23 02:27:45;;;;;;;;;;;;;;;15.80;100.00;96071.94;5049468;28;20362;-76
2023/06/23 02:30:11;;;;;;;;;;;;;;;15.86;100.00;96076.66;5054209;28;19975;-76
2023/06/23 02:32:39;;;;;;;;;;;;;;;15.95;100.00;96089.00;5045489;28;19932;-76
2023/06/23 02:35:07;;;;;;;;;;;;;;;15.99;100.00;96086.97;5046761;28;20353;-75
2023/06/23 02:37:34;;;;;;;;;;;;;;;15.97;100.00;96087.06;5048197;28;20007;-76
2023/06/23 02:40:06;;;;;;;;;;;;;;;15.89;100.00;96097.31;5045727;28;19925;-75
2023/06/23 02:42:33;;;;;;;;;;;;;;;15.99;100.00;96094.81;5037771;28;20383;-76
2023/06/23 02:45:02;;;;;;;;;;;;;;;15.93;100.00;96082.22;5048323;28;19971;-76
2023/06/23 02:47:30;;;;;;;;;;;;;;;16.03;100.00;96091.00;5052136;28;20437;-76
2023/06/23 02:50:00;;;;;;;;;;;;;;;15.94;100.00;96082.13;5053797;28;19932;-76
2023/06/23 02:52:29;;;;;;;;;;;;;;;15.97;100.00;96087.06;5051769;28;20011;-76
2023/06/23 02:54:56;;;;;;;;;;;;;;;16.03;100.00;96098.84;5045646;28;19925;-76
2023/06/23 02:57:25;;;;;;;;;;;;;;;16.07;100.00;96100.25;5045931;28;19925;-76
2023/06/23 02:59:53;;;;;;;;;;;;;;;16.07;100.00;96092.41;5053449;28;19939;-75
2023/06/23 03:02:22;;;;;;;;;;;;;;;16.15;100.00;96095.25;5049376;28;20027;-76
2023/06/23 03:04:48;;;;;;;;;;;;;;;16.02;100.00;96101.56;5046026;28;19931;-76
2023/06/23 03:07:15;;;;;;;;;;;;;;;16.04;100.00;96097.88;5050098;28;19925;-76
2023/06/23 03:09:42;;;;;;;;;;;;;;;16.07;100.00;96107.25;5042582;28;19929;-76
2023/06/23 03:12:09;;;;;;;;;;;;;;;16.05;100.00;96106.53;5047694;28;20022;-76
2023/06/23 03:14:37;;;;;;;;;;;;;;;16.04;100.00;96113.56;5051693;28;19932;-76
2023/06/23 03:17:06;;;;;;;;;;;;;;;16.01;100.00;96111.19;5048187;28;19931;-76
2023/06/23 03:19:36;;;;;;;;;;;;;;;16.11;100.00;96109.50;5047639;28;19932;-76
2023/06/23 03:22:05;;;;;;;;;;;;;;;16.04;100.00;96124.00;5050415;28;19975;-76
2023/06/23 03:24:33;;;;;;;;;;;;;;;16.08;100.00;96125.41;5046599;28;19932;-76
2023/06/23 03:27:03;;;;;;;;;;;;;;;16.13;100.00;96135.50;5052747;28;19947;-76
2023/06/23 03:29:31;;;;;;;;;;;;;;;16.16;100.00;96135.25;5042498;28;19925;-76
2023/06/23 03:32:02;;;;;;;;;;;;;;;16.19;100.00;96132.41;5046068;28;19936;-76
2023/06/23 03:34:32;;;;;;;;;;;;;;;16.17;100.00;96136.94;5042538;28;19929;-76
2023/06/23 03:36:59;;;;;;;;;;;;;;;16.16;100.00;96149.16;5042049;28;19929;-76
2023/06/23 03:39:27;;;;;;;;;;;;;;;16.18;100.00;96149.06;5045570;28;19924;-76
2023/06/23 03:41:54;;;;;;;;;;;;;;;16.14;100.00;96148.47;5046478;28;19932;-75
2023/06/23 03:44:23;;;;;;;;;;;;;;;16.10;100.00;96152.28;5053277;28;19925;-76
2023/06/23 03:46:52;;;;;;;;;;;;;;;16.12;100.00;96150.34;5050089;28;19971;-76
2023/06/23 03:49:21;;;;;;;;;;;;;;;16.18;100.00;96154.28;5049459;28;19982;-76
2023/06/23 03:51:48;;;;;;;;;;;;;;;16.12;100.00;96152.13;5052726;28;19975;-76
2023/06/23 03:54:15;;;;;;;;;;;;;;;16.19;100.00;96156.75;5040187;28;19943;-76
2023/06/23 03:56:42;;;;;;;;;;;;;;;16.19;100.00;96161.16;5045925;28;19928;-76
2023/06/23 03:59:09;;;;;;;;;;;;;;;16.27;100.00;96163.16;5049971;28;20597;-75
2023/06/23 04:01:37;;;;;;;;;;;;;;;16.20;100.00;96165.41;5046256;28;19971;-76
2023/06/23 04:04:04;;;;;;;;;;;;;;;16.17;100.00;96176.97;5042296;28;19925;-76
2023/06/23 04:06:34;;;;;;;;;;;;;;;16.15;100.00;96181.47;5047241;28;19925;-76
2023/06/23 04:09:02;;;;;;;;;;;;;;;16.17;100.00;96181.38;5050446;28;20581;-76
2023/06/23 04:11:29;;;;;;;;;;;;;;;16.14;100.00;96194.66;5046174;28;19928;-76
2023/06/23 04:13:56;;;;;;;;;;;;;;;16.19;100.00;96197.75;5051757;28;20488;-75
2023/06/23 04:16:24;;;;;;;;;;;;;;;16.15;100.00;96198.94;5046353;28;20387;-76
2023/06/23 04:18:50;;;;;;;;;;;;;;;16.30;100.00;96210.78;5046368;28;20409;-75
2023/06/23 04:21:17;;;;;;;;;;;;;;;16.36;100.00;96204.28;5044337;28;20611;-76
2023/06/23 04:23:46;;;;;;;;;;;;;;;16.48;100.00;96213.75;5051693;28;19925;-74
2023/06/23 04:26:13;;;;;;;;;;;;;;;16.38;100.00;96223.25;5045180;28;19925;-74
2023/06/23 04:28:40;;;;;;;;;;;;;;;16.37;100.00;96211.16;5051966;28;19925;-74
2023/06/23 04:31:08;;;;;;;;;;;;;;;16.54;100.00;96225.47;5049677;28;19978;-75
2023/06/23 04:33:35;;;;;;;;;;;;;;;16.48;100.00;96234.66;5045302;28;19931;-75
2023/06/23 04:36:06;;;;;;;;;;;;;;;16.50;100.00;96243.22;5051643;28;20687;-75
2023/06/23 04:38:35;;;;;;;;;;;;;;;16.50;100.00;96238.00;5046998;28;20359;-75
2023/06/23 04:41:08;;;;;;;;;;;;;;;16.62;100.00;96238.81;5049154;28;19971;-74
2023/06/23 04:43:37;;;;;;;;;;;;;;;16.73;100.00;96243.19;5039425;28;20602;-76
2023/06/23 04:46:07;;;;;;;;;;;;;;;16.67;100.00;96242.72;5044058;28;19925;-76
2023/06/23 04:48:36;;;;;;;;;;;;;;;16.66;100.00;96256.75;5047669;28;19928;-76
2023/06/23 04:51:05;;;;;;;;;;;;;;;16.77;100.00;96261.16;5049464;28;19937;-76
2023/06/23 04:53:33;;;;;;;;;;;;;;;16.69;100.00;96263.53;5039832;28;20041;-76
2023/06/23 04:56:01;;;;;;;;;;;;;;;16.58;100.00;96266.97;5045184;28;19936;-76
2023/06/23 04:58:30;;;;;;;;;;;;;;;16.67;100.00;96271.47;5043850;28;19929;-76
2023/06/23 05:00:58;;;;;;;;;;;;;;;16.77;100.00;96281.25;5048070;28;19986;-76
2023/06/23 05:03:26;;;;;;;;;;;;;;;16.68;100.00;96282.75;5040776;28;19933;-76
2023/06/23 05:05:54;;;;;;;;;;;;;;;16.57;100.00;96286.22;5040208;28;19925;-76
2023/06/23 05:08:21;;;;;;;;;;;;;;;16.58;100.00;96290.53;5049024;28;19925;-76
2023/06/23 05:10:47;;;;;;;;;;;;;;;16.72;100.00;96291.19;5044635;28;19937;-76
2023/06/23 05:13:17;;;;;;;;;;;;;;;16.55;100.00;96300.38;5047957;28;19931;-76
2023/06/23 05:15:45;;;;;;;;;;;;;;;16.59;100.00;96305.25;5039601;28;20576;-73
2023/06/23 05:18:12;;;;;;;;;;;;;;;16.61;100.00;96299.88;5049097;28;19974;-74
2023/06/23 05:20:40;;;;;;;;;;;;;;;16.62;100.00;96305.00;5047693;28;19983;-72
2023/06/23 05:23:06;;;;;;;;;;;;;;;16.58;100.00;96305.38;5048598;28;19983;-73
2023/06/23 05:25:33;;;;;;;;;;;;;;;16.61;100.00;96311.19;5048562;28;19994;-73
2023/06/23 05:28:00;;;;;;;;;;;;;;;16.84;100.00;96303.34;5048342;28;19937;-72
2023/06/23 05:30:28;;;;;;;;;;;;;;;17.00;100.00;96300.34;5043172;28;20028;-73
2023/06/23 05:32:56;;;;;;;;;;;;;;;17.15;100.00;96297.31;5043206;28;19986;-73
2023/06/23 05:35:24;;;;;;;;;;;;;;;17.36;100.00;96286.91;5044948;28;19979;-73
2023/06/23 05:37:51;;;;;;;;;;;;;;;17.59;100.00;96295.47;5041812;28;20592;-74
2023/06/23 05:40:17;;;;;;;;;;;;;;;17.40;100.00;96296.16;5044441;28;20060;-74
2023/06/23 05:42:43;;;;;;;;;;;;;;;17.46;100.00;96294.81;5050770;28;19956;-73
2023/06/23 05:45:10;;;;;;;;;;;;;;;17.46;100.00;96305.28;5048390;28;20482;-73
2023/06/23 05:47:41;;;;;;;;;;;;;;;17.27;100.00;96299.91;5054156;28;19929;-73
2023/06/23 05:50:13;;;;;;;;;;;;;;;17.01;100.00;96304.63;5053413;28;19944;-73
2023/06/23 05:52:41;;;;;;;;;;;;;;;17.05;100.00;96306.03;5049229;28;19928;-74
2023/06/23 05:55:09;;;;;;;;;;;;;;;17.09;100.00;96312.69;5044782;28;19932;-74
2023/06/23 05:57:36;;;;;;;;;;;;;;;17.14;100.00;96316.59;5043936;28;20047;-74
2023/06/23 06:00:09;;;;;;;;;;;;;;;17.09;100.00;96303.06;5046226;28;19955;-74
2023/06/23 06:02:37;;;;;;;;;;;;;;;17.10;100.00;96311.75;5053059;28;19928;-73
2023/06/23 06:05:07;;;;;;;;;;;;;;;17.22;100.00;96312.53;5047053;28;19924;-74
2023/06/23 06:07:35;;;;;;;;;;;;;;;17.13;100.00;96314.94;5047787;28;19925;-73
2023/06/23 06:10:02;;;;;;;;;;;;;;;17.13;100.00;96324.56;5047203;28;19925;-73
2023/06/23 06:12:29;;;;;;;;;;;;;;;17.15;100.00;96322.66;5047517;28;19932;-73
2023/06/23 06:14:58;;;;;;;;;;;;;;;17.23;100.00;96332.50;5047131;28;19932;-73
2023/06/23 06:17:25;;;;;;;;;;;;;;;17.24;100.00;96328.94;5049319;28;19925;-73
2023/06/23 06:19:53;;;;;;;;;;;;;;;17.34;100.00;96325.47;5045879;28;19929;-73
2023/06/23 06:22:20;;;;;;;;;;;;;;;17.31;100.00;96327.50;5054217;28;19933;-74
2023/06/23 06:24:48;;;;;;;;;;;;;;;17.31;100.00;96330.94;5050956;28;19929;-74
2023/06/23 06:27:15;;;;;;;;;;;;;;;17.62;100.00;96336.31;5047663;28;19929;-72
2023/06/23 06:29:43;;;;;;;;;;;;;;;17.50;100.00;96338.16;5049123;28;19982;-73
2023/06/23 06:32:10;;;;;;;;;;;;;;;17.78;100.00;96335.91;5051079;28;19929;-73
2023/06/23 06:34:38;;;;;;;;;;;;;;;18.07;100.00;96339.56;5048680;28;20318;-73
2023/06/23 06:37:05;;;;;;;;;;;;;;;17.73;100.00;96338.88;5050932;28;19935;-73
2023/06/23 06:39:31;;;;;;;;;;;;;;;17.82;100.00;96350.41;5047214;28;19929;-72
2023/06/23 06:41:59;;;;;;;;;;;;;;;17.92;100.00;96351.31;5051144;28;19925;-71
2023/06/23 06:44:25;;;;;;;;;;;;;;;18.00;100.00;96356.75;5043113;28;19925;-73
2023/06/23 06:46:53;;;;;;;;;;;;;;;17.92;100.00;96358.34;5050561;28;20019;-74
2023/06/23 06:49:19;;;;;;;;;;;;;;;17.99;100.00;96360.34;5047265;28;19943;-74
2023/06/23 06:51:46;;;;;;;;;;;;;;;18.03;100.00;96368.78;5054230;28;20492;-74
2023/06/23 06:54:12;;;;;;;;;;;;;;;17.91;100.00;96370.63;5041602;28;19925;-74
2023/06/23 06:56:39;;;;;;;;;;;;;;;17.86;100.00;96373.59;5047213;28;19928;-73
2023/06/23 06:59:07;;;;;;;;;;;;;;;17.98;100.00;96376.19;5042179;28;19997;-73
2023/06/23 07:01:34;;;;;;;;;;;;;;;17.81;100.00;96382.81;5039397;28;20330;-73
2023/06/23 07:04:00;;;;;;;;;;;;;;;17.99;100.00;96386.56;5046959;28;19932;-73
2023/06/23 07:06:27;;;;;;;;;;;;;;;18.03;100.00;96392.38;5048004;28;19929;-73
2023/06/23 07:08:53;;;;;;;;;;;;;;;18.14;100.00;96389.69;5050422;28;19971;-74
2023/06/23 07:11:20;;;;;;;;;;;;;;;17.82;100.00;96400.19;5047024;28;19933;-73
2023/06/23 07:13:46;;;;;;;;;;;;;;;17.85;100.00;96403.41;5049240;28;19929;-73
2023/06/23 07:16:14;;;;;;;;;;;;;;;18.07;100.00;96399.00;5048537;28;19932;-74
2023/06/23 07:18:41;;;;;;;;;;;;;;;18.31;100.00;96404.81;5051729;28;19929;-72
2023/06/23 07:21:09;;;;;;;;;;;;;;;18.31;100.00;96406.63;5048000;28;19924;-73
2023/06/23 07:23:35;;;;;;;;;;;;;;;17.99;100.00;96406.69;5050654;28;20314;-74
2023/06/23 07:26:01;;;;;;;;;;;;;;;17.96;100.00;96406.94;5048498;28;19940;-73
2023/06/23 07:28:27;;;;;;;;;;;;;;;18.12;100.00;96410.78;5048870;28;20432;-73
2023/06/23 07:30:54;;;;;;;;;;;;;;;18.12;100.00;96415.19;5045253;28;19929;-74
2023/06/23 07:33:22;;;;;;;;;;;;;;;18.16;100.00;96423.63;5047462;28;20069;-74
2023/06/23 07:35:48;;;;;;;;;;;;;;;18.12;100.00;96423.88;5045286;28;19932;-74
2023/06/23 07:38:15;;;;;;;;;;;;;;;18.26;100.00;96422.75;5039513;28;20395;-74
2023/06/23 07:40:41;;;;;;;;;;;;;;;18.29;100.00;96427.72;5044496;28;20391;-73
2023/06/23 07:43:08;;;;;;;;;;;;;;;18.72;100.00;96424.13;5042940;28;20358;-73
2023/06/23 07:45:34;;;;;;;;;;;;;;;18.76;100.00;96433.44;5048036;28;19956;-73
2023/06/23 07:48:00;;;;;;;;;;;;;;;18.63;100.00;96440.63;5038650;28;20003;-74
2023/06/23 07:50:28;;;;;;;;;;;;;;;18.86;100.00;96446.59;5050476;28;19929;-74
2023/06/23 07:52:54;;;;;;;;;;;;;;;18.66;100.00;96452.69;5049685;28;19929;-74
2023/06/23 07:55:21;;;;;;;;;;;;;;;18.91;100.00;96441.78;5044497;28;19924;-74
2023/06/23 07:57:48;;;;;;;;;;;;;;;18.85;100.00;96447.56;5043108;28;19935;-73
2023/06/23 08:00:15;;;;;;;;;;;;;;;19.08;100.00;96454.28;5040427;28;20078;-73
2023/06/23 08:02:41;;;;;;;;;;;;;;;19.19;100.00;96465.66;5040782;28;19952;-75
2023/06/23 08:05:08;;;;;;;;;;;;;;;19.27;100.00;96463.19;5044656;28;20299;-75
2023/06/23 08:07:36;;;;;;;;;;;;;;;19.34;100.00;96467.78;5052476;28;19924;-75
2023/06/23 08:10:02;;;;;;;;;;;;;;;18.91;100.00;96469.81;5039213;28;20421;-75
2023/06/23 08:12:28;;;;;;;;;;;;;;;18.86;100.00;96470.22;5052458;28;19928;-74
2023/06/23 08:14:55;;;;;;;;;;;;;;;18.99;100.00;96467.38;5049354;28;19932;-74
2023/06/23 08:17:21;;;;;;;;;;;;;;;18.99;100.00;96476.09;5050598;28;20414;-74
2023/06/23 08:19:47;;;;;;;;;;;;;;;18.93;100.00;96489.72;5047154;28;19924;-73
2023/06/23 08:22:14;;;;;;;;;;;;;;;18.73;100.00;96480.09;5049597;28;19932;-73
2023/06/23 08:24:41;;;;;;;;;;;;;;;18.94;100.00;96485.31;5045591;28;19925;-73
2023/06/23 08:27:08;;;;;;;;;;;;;;;18.51;100.00;96489.72;5045086;28;20390;-73
2023/06/23 08:29:37;;;;;;;;;;;;;;;18.52;100.00;96493.19;5051484;28;19979;-73
2023/06/23 08:32:03;;;;;;;;;;;;;;;18.38;100.00;96487.28;5052010;28;20409;-72
2023/06/23 08:34:29;;;;;;;;;;;;;;;18.65;100.00;96492.97;5051994;28;19928;-73
2023/06/23 08:36:55;;;;;;;;;;;;;;;19.18;100.00;96500.78;5047496;28;20294;-72
2023/06/23 08:39:22;;;;;;;;;;;;;;;19.24;100.00;96498.44;5042730;28;19929;-73
2023/06/23 08:41:49;;;;;;;;;;;;;;;19.34;100.00;96501.09;5047612;28;19929;-75
2023/06/23 08:44:16;;;;;;;;;;;;;;;19.51;100.00;96497.84;5049606;28;19940;-73
2023/06/23 08:46:44;;;;;;;;;;;;;;;19.78;100.00;96499.06;5050090;28;19932;-71
2023/06/23 08:49:15;;;;;;;;;;;;;;;19.89;100.00;96495.47;5049247;28;19968;-73
2023/06/23 08:51:41;;;;;;;;;;;;;;;19.70;100.00;96497.09;5040584;28;20140;-73
2023/06/23 08:54:08;;;;;;;;;;;;;;;19.40;100.00;96507.63;5042871;28;19928;-73
2023/06/23 08:56:34;;;;;;;;;;;;;;;19.47;100.00;96498.25;5041029;28;20055;-73
2023/06/23 08:59:02;;;;;;;;;;;;;;;19.56;100.00;96510.59;5046672;28;19986;-74
2023/06/23 09:01:28;;;;;;;;;;;;;;;19.78;100.00;96517.44;5042588;28;19952;-74
2023/06/23 09:03:54;;;;;;;;;;;;;;;19.88;100.00;96512.22;5047581;28;19925;-74
2023/06/23 09:06:20;;;;;;;;;;;;;;;19.43;100.00;96523.97;5046631;28;19975;-73
2023/06/23 09:08:47;;;;;;;;;;;;;;;19.62;100.00;96523.22;5046106;28;20348;-73
2023/06/23 09:11:13;;;;;;;;;;;;;;;19.13;100.00;96530.03;5046362;28;19937;-73
2023/06/23 09:13:41;;;;;;;;;;;;;;;18.93;100.00;96529.09;5043452;28;19929;-74
2023/06/23 09:16:10;;;;;;;;;;;;;;;19.06;100.00;96529.75;5043497;28;20386;-74
2023/06/23 09:18:40;;;;;;;;;;;;;;;19.41;100.00;96528.50;5041695;28;19936;-74
2023/06/23 09:21:07;;;;;;;;;;;;;;;19.16;100.00;96536.81;5048201;28;19926;-74
2023/06/23 09:23:34;;;;;;;;;;;;;;;19.22;100.00;96533.69;5046553;28;19928;-74
2023/06/23 09:26:03;;;;;;;;;;;;;;;19.31;100.00;96546.84;5043270;28;19933;-73
2023/06/23 09:28:30;;;;;;;;;;;;;;;19.35;100.00;96544.78;5046746;28;19929;-73
2023/06/23 09:30:57;;;;;;;;;;;;;;;19.35;100.00;96526.41;5040774;28;20399;-74
2023/06/23 09:33:25;;;;;;;;;;;;;;;19.61;100.00;96532.03;5046400;28;20024;-73
2023/06/23 09:35:53;;;;;;;;;;;;;;;20.03;100.00;96534.53;5044545;28;19987;-73
2023/06/23 09:38:19;;;;;;;;;;;;;;;20.15;100.00;96545.75;5044880;28;19995;-74
2023/06/23 09:40:46;;;;;;;;;;;;;;;19.63;100.00;96543.28;5038146;28;19968;-74
2023/06/23 09:43:13;;;;;;;;;;;;;;;19.56;100.00;96539.47;5043323;28;19925;-74
2023/06/23 09:45:39;;;;;;;;;;;;;;;19.92;100.00;96542.53;5039478;28;19925;-74
2023/06/23 09:48:15;;;;;;;;;;;;;;;20.31;100.00;96541.59;5048989;28;19929;-74
2023/06/23 09:50:42;;;;;;;;;;;;;;;20.05;100.00;96551.81;5049915;28;19979;-74
2023/06/23 09:53:09;;;;;;;;;;;;;;;20.08;100.00;96547.25;5040654;28;19925;-73
2023/06/23 09:55:35;;;;;;;;;;;;;;;20.37;100.00;96549.94;5040584;28;19925;-74
2023/06/23 09:58:02;;;;;;;;;;;;;;;20.39;100.00;96546.16;5042732;28;19990;-74
2023/06/23 10:00:32;;;;;;;;;;;;;;;20.48;100.00;96550.63;5050630;28;19983;-74
2023/06/23 10:02:58;;;;;;;;;;;;;;;20.24;100.00;96550.19;5039564;28;19932;-74
2023/06/23 10:05:25;;;;;;;;;;;;;;;20.40;100.00;96555.75;5046959;28;19968;-73
2023/06/23 10:08:07;;;;;;;;;;;;;;;20.81;100.00;96561.72;5049251;28;19929;-73
2023/06/23 10:10:33;;;;;;;;;;;;;;;20.46;100.00;96555.16;5046320;28;20032;-73
2023/06/23 10:12:59;;;;;;;;;;;;;;;21.16;100.00;96555.81;5049201;28;19947;-73
2023/06/23 10:15:28;;;;;;;;;;;;;;;21.43;100.00;96552.47;5049141;28;19972;-73
2023/06/23 10:17:55;;;;;;;;;;;;;;;20.86;100.00;96556.84;5049809;28;20289;-73
2023/06/23 10:20:21;;;;;;;;;;;;;;;21.27;100.00;96557.47;5046667;28;19933;-73
2023/06/23 10:22:48;;;;;;;;;;;;;;;20.98;100.00;96563.63;5044657;28;19924;-73
2023/06/23 10:25:16;;;;;;;;;;;;;;;21.05;97.73;96565.69;5046698;28;20276;-73
2023/06/23 10:27:44;;;;;;;;;;;;;;;20.83;98.56;96549.22;5049464;28;19987;-73
2023/06/23 10:30:11;;;;;;;;;;;;;;;21.09;89.89;96554.72;5041150;28;19979;-74
2023/06/23 10:32:38;;;;;;;;;;;;;;;21.24;83.81;96548.03;5047202;28;19975;-73
2023/06/23 10:35:06;;;;;;;;;;;;;;;21.12;85.96;96549.19;5050466;28;19925;-73
2023/06/23 10:37:33;;;;;;;;;;;;;;;21.57;83.50;96540.59;5052494;28;19983;-73
2023/06/23 10:40:03;;;;;;;;;;;;;;;21.64;83.04;96541.66;5053504;28;20012;-73
2023/06/23 10:42:32;;;;;;;;;;;;;;;21.73;82.49;96551.34;5053816;28;19929;-73
2023/06/23 10:44:59;;;;;;;;;;;;;;;20.91;83.13;96554.66;5041997;28;19933;-73
2023/06/23 10:47:26;;;;;;;;;;;;;;;21.38;79.78;96552.03;5052188;28;20450;-73
2023/06/23 10:49:53;;;;;;;;;;;;;;;21.50;78.90;96540.34;5053233;28;19925;-73
2023/06/23 10:52:19;;;;;;;;;;;;;;;21.74;78.66;96525.81;5046733;28;20361;-73
2023/06/23 10:54:45;;;;;;;;;;;;;;;22.12;76.30;96537.94;5048150;28;19971;-74
2023/06/23 10:57:12;;;;;;;;;;;;;;;21.90;75.53;96538.34;5043104;28;19929;-74
2023/06/23 10:59:42;;;;;;;;;;;;;;;21.70;76.98;96545.53;5053482;28;20015;-73
2023/06/23 11:02:10;;;;;;;;;;;;;;;21.84;77.86;96531.03;5050137;28;19925;-74
2023/06/23 11:04:38;;;;;;;;;;;;;;;21.42;75.03;96548.16;5044449;28;19928;-74
2023/06/23 11:07:06;;;;;;;;;;;;;;;21.26;73.18;96540.00;5047162;28;19932;-72
2023/06/23 11:09:45;;;;;;;;;;;;;;;21.78;74.87;96536.91;5041681;28;19929;-72
2023/06/23 11:12:30;;;;;;;;;;;;;;;21.88;70.54;96541.16;5050846;28;19928;-73
2023/06/23 11:15:02;;;;;;;;;;;;;;;21.56;73.55;96546.03;5050631;28;20015;-74
2023/06/23 11:17:28;;;;;;;;;;;;;;;21.64;74.76;96552.22;5045244;28;20004;-74
2023/06/23 11:19:55;;;;;;;;;;;;;;;21.96;72.60;96546.50;5048886;28;19928;-74
2023/06/23 11:22:22;;;;;;;;;;;;;;;22.07;71.10;96552.56;5050301;28;19928;-73
2023/06/23 11:24:52;;;;;;;;;;;;;;;21.46;71.34;96560.06;5052070;28;20380;-73
2023/06/23 11:27:18;;;;;;;;;;;;;;;21.35;72.94;96549.69;5051121;28;20015;-73
2023/06/23 11:30:05;;;;;;;;;;;;;;;21.45;75.37;96541.75;5048704;28;19929;-73
2023/06/23 11:32:32;;;;;;;;;;;;;;;21.47;72.40;96553.00;5047344;28;19928;-73
2023/06/23 11:35:01;;;;;;;;;;;;;;;21.51;73.74;96549.09;5049530;28;19933;-73
2023/06/23 11:37:28;;;;;;;;;;;;;;;21.77;74.25;96545.75;5041111;28;19925;-73
2023/06/23 11:39:55;;;;;;;;;;;;;;;21.80;73.33;96530.47;5045619;28;19935;-73
2023/06/23 11:42:21;;;;;;;;;;;;;;;22.33;71.11;96550.88;5041481;28;19928;-73
2023/06/23 11:44:47;;;;;;;;;;;;;;;22.41;68.41;96552.78;5047800;28;19929;-75
2023/06/23 11:47:14;;;;;;;;;;;;;;;22.26;71.12;96544.53;5052197;28;19979;-73
2023/06/23 11:49:41;;;;;;;;;;;;;;;22.26;73.47;96544.53;5048932;28;19924;-73
2023/06/23 11:52:08;;;;;;;;;;;;;;;22.43;74.65;96546.38;5051094;28;19929;-72
2023/06/23 11:54:35;;;;;;;;;;;;;;;22.23;67.05;96550.94;5052266;28;19929;-73
2023/06/23 11:57:02;;;;;;;;;;;;;;;22.02;70.04;96550.34;5048378;28;19960;-72
2023/06/23 11:59:33;;;;;;;;;;;;;;;21.75;73.62;96556.47;5048798;28;19939;-74
2023/06/23 12:02:00;;;;;;;;;;;;;;;21.87;75.27;96560.56;5051580;28;20010;-73
2023/06/23 12:04:26;;;;;;;;;;;;;;;21.79;75.84;96576.28;5050402;28;19936;-75
2023/06/23 12:06:54;;;;;;;;;;;;;;;21.71;73.39;96570.91;5044375;28;19924;-73
2023/06/23 12:09:21;;;;;;;;;;;;;;;21.68;71.17;96566.75;5044780;28;19925;-73
2023/06/23 12:11:47;;;;;;;;;;;;;;;21.61;69.23;96560.41;5047305;28;19971;-73
2023/06/23 12:14:14;;;;;;;;;;;;;;;21.63;66.22;96563.75;5049435;28;20440;-72
2023/06/23 12:16:40;;;;;;;;;;;;;;;21.55;65.63;96552.28;5042784;28;20023;-73
2023/06/23 12:19:07;;;;;;;;;;;;;;;21.64;67.37;96554.84;5045187;28;19929;-73
2023/06/23 12:21:33;;;;;;;;;;;;;;;21.62;67.75;96558.63;5047684;28;20437;-75
2023/06/23 12:24:01;;;;;;;;;;;;;;;21.86;68.75;96540.44;5047038;28;19925;-73
2023/06/23 12:26:27;;;;;;;;;;;;;;;21.74;71.25;96557.47;5047309;28;19925;-73
2023/06/23 12:29:07;;;;;;;;;;;;;;;21.89;67.46;96548.06;5042752;28;19925;-75
2023/06/23 12:31:33;;;;;;;;;;;;;;;22.05;64.93;96542.13;5040516;28;20451;-75
2023/06/23 12:34:00;;;;;;;;;;;;;;;22.49;65.81;96539.63;5051747;28;20000;-74
2023/06/23 12:36:27;;;;;;;;;;;;;;;22.62;62.52;96533.97;5044267;28;19929;-73
2023/06/23 12:38:54;;;;;;;;;;;;;;;22.56;61.72;96537.22;5051545;28;19978;-72
2023/06/23 12:41:23;;;;;;;;;;;;;;;22.82;62.86;96543.38;5047796;28;19929;-74